FredonyerEastRWIS Atmospheric Data: 02/13/2018 Summary  Detailed Graphs  Station List

  Temperature     Wind Precipitation Visibility
Timestamp Air Wet
Bulb
Dew-
point
24-hr
Max
24-hr
Min
Relative
Humidity
Atmospheric
Pressure
Avg
Speed
Avg
Dir
Spot
Speed
Spot
Dir
Max
Speed
Max
Dir
  Rate Situation Start End 1 hr 3 hr 6 hr 12 hr 24 hr   Situation
Date Time °F °F °F °F °F % in Hg mph ° mph ° mph ° Y/N in/hr text Date Time Date Time in in in in in mi text
02/13/2018 12:08 AM 19.76 16.88 4.10 33.44 19.58 49.0 Not Reported 0.67 NE 0.89 N 1.34 NW No x No Precipitation 02/12/2018 02:49 PM 02/12/2018 02:50 PM x x x x x Not Reported Not Reported
02/13/2018 12:23 AM 19.04 16.34 4.28 33.44 19.04 52.0 Not Reported 0.00 NE 0.00 NE 0.00 x No x No Precipitation 02/12/2018 02:49 PM 02/12/2018 02:50 PM x x x x x Not Reported Not Reported
02/13/2018 12:38 AM 18.50 15.98 4.64 33.44 18.50 53.0 Not Reported 0.22 N 1.12 N 1.57 N No x No Precipitation 02/12/2018 02:49 PM 02/12/2018 02:50 PM x x x x x Not Reported Not Reported
02/13/2018 12:53 AM 18.32 15.80 5.18 33.44 18.32 55.0 Not Reported 1.34 N 1.57 N 1.79 N No x No Precipitation 02/12/2018 02:49 PM 02/12/2018 02:50 PM x x x x x Not Reported Not Reported
02/13/2018 01:08 AM 18.14 15.62 5.54 33.44 18.14 57.0 Not Reported 0.45 NW 0.00 NW 2.46 NW No x No Precipitation 02/12/2018 02:49 PM 02/12/2018 02:50 PM x x x x x Not Reported Not Reported
02/13/2018 01:23 AM 17.78 15.44 5.90 33.44 17.78 58.0 Not Reported 1.57 NW 1.12 NW 2.01 NW No x No Precipitation 02/12/2018 02:49 PM 02/12/2018 02:50 PM x x x x x Not Reported Not Reported
02/13/2018 01:38 AM 17.96 15.62 6.44 33.44 17.60 59.0 Not Reported 1.79 NW 1.79 NW 2.68 NW No x No Precipitation 02/12/2018 02:49 PM 02/12/2018 02:50 PM x x x x x Not Reported Not Reported
02/13/2018 01:53 AM 17.60 15.44 6.44 33.44 17.60 60.0 Not Reported 1.34 N 0.89 NW 2.46 N No x No Precipitation 02/12/2018 02:49 PM 02/12/2018 02:50 PM x x x x x Not Reported Not Reported
02/13/2018 02:08 AM 17.24 14.90 6.26 33.44 17.06 61.0 Not Reported 1.12 N 1.79 N 1.79 N No x No Precipitation 02/12/2018 02:49 PM 02/12/2018 02:50 PM x x x x x Not Reported Not Reported
02/13/2018 02:23 AM 17.24 15.08 6.62 33.44 17.06 62.0 Not Reported 1.57 NW 0.89 NE 2.46 NW No x No Precipitation 02/12/2018 02:49 PM 02/12/2018 02:50 PM x x x x x Not Reported Not Reported
02/13/2018 02:38 AM 17.06 14.90 6.80 33.44 17.06 63.0 Not Reported 0.67 N 1.34 N 2.01 N No x No Precipitation 02/12/2018 02:49 PM 02/12/2018 02:50 PM x x x x x Not Reported Not Reported
02/13/2018 02:53 AM 16.88 14.72 6.80 33.44 16.70 63.0 Not Reported 1.12 N 1.12 N 2.01 N No x No Precipitation 02/12/2018 02:49 PM 02/12/2018 02:50 PM x x x x x Not Reported Not Reported
02/13/2018 03:08 AM 16.34 14.36 6.26 33.44 16.34 64.0 Not Reported 0.00 N 0.00 N 0.00 x No x No Precipitation 02/12/2018 02:49 PM 02/12/2018 02:50 PM x x x x x Not Reported Not Reported
02/13/2018 03:23 AM 15.62 13.82 5.90 33.44 15.62 64.0 Not Reported 0.22 S 1.12 NW 1.12 NW No x No Precipitation 02/12/2018 02:49 PM 02/12/2018 02:50 PM x x x x x Not Reported Not Reported
02/13/2018 03:38 AM 15.44 13.46 5.90 33.44 15.44 65.0 Not Reported 0.00 N 0.00 N 0.89 N No x No Precipitation 02/12/2018 02:49 PM 02/12/2018 02:50 PM x x x x x Not Reported Not Reported
02/13/2018 03:53 AM 14.90 13.10 5.54 33.44 14.90 65.0 Not Reported 0.00 N 0.00 N 0.00 x No x No Precipitation 02/12/2018 02:49 PM 02/12/2018 02:50 PM x x x x x Not Reported Not Reported
02/13/2018 04:08 AM 14.54 12.74 5.54 33.44 14.54 66.0 Not Reported 0.22 N 0.22 N 0.89 N No x No Precipitation 02/12/2018 02:49 PM 02/12/2018 02:50 PM x x x x x Not Reported Not Reported
02/13/2018 04:23 AM 14.18 12.38 5.18 33.44 14.18 66.0 Not Reported 0.00 N 0.00 N 0.00 x No x No Precipitation 02/12/2018 02:49 PM 02/12/2018 02:50 PM x x x x x Not Reported Not Reported
02/13/2018 04:38 AM 14.00 12.20 5.00 33.44 14.00 66.0 Not Reported 0.00 N 0.00 N 0.00 x No x No Precipitation 02/12/2018 02:49 PM 02/12/2018 02:50 PM x x x x x Not Reported Not Reported
02/13/2018 04:53 AM 13.64 12.02 4.82 33.44 13.64 67.0 Not Reported 0.00 N 0.00 N 0.22 N No x No Precipitation 02/12/2018 02:49 PM 02/12/2018 02:50 PM x x x x x Not Reported Not Reported
02/13/2018 05:08 AM 13.64 12.02 4.82 33.44 13.46 66.0 Not Reported 0.00 N 0.00 S 0.89 N No x No Precipitation 02/12/2018 02:49 PM 02/12/2018 02:50 PM x x x x x Not Reported Not Reported
02/13/2018 05:23 AM 13.46 11.84 4.64 33.44 13.46 67.0 Not Reported 0.22 N 0.00 N 1.79 N No x No Precipitation 02/12/2018 02:49 PM 02/12/2018 02:50 PM x x x x x Not Reported Not Reported
02/13/2018 05:38 AM 13.64 12.02 4.82 33.44 13.46 66.0 Not Reported 0.00 SE 0.00 S 1.12 N No x No Precipitation 02/12/2018 02:49 PM 02/12/2018 02:50 PM x x x x x Not Reported Not Reported
02/13/2018 05:53 AM 13.28 11.48 4.28 33.44 13.28 67.0 Not Reported 0.00 W 0.00 W 0.00 x No x No Precipitation 02/12/2018 02:49 PM 02/12/2018 02:50 PM x x x x x Not Reported Not Reported
02/13/2018 06:08 AM 13.28 11.48 4.28 33.44 13.10 66.0 Not Reported 0.00 W 0.00 W 0.00 x No x No Precipitation 02/12/2018 02:49 PM 02/12/2018 02:50 PM x x x x x Not Reported Not Reported
02/13/2018 06:23 AM 13.10 11.48 4.10 33.44 12.92 67.0 Not Reported 0.00 S 0.00 S 0.00 x No x No Precipitation 02/12/2018 02:49 PM 02/12/2018 02:50 PM x x x x x Not Reported Not Reported
02/13/2018 06:38 AM 12.56 10.94 3.74 33.44 12.56 66.0 Not Reported 0.00 S 0.00 S 0.00 x No x No Precipitation 02/12/2018 02:49 PM 02/12/2018 02:50 PM x x x x x Not Reported Not Reported
02/13/2018 06:53 AM 12.74 11.12 3.92 33.44 12.56 66.0 Not Reported 0.22 S 0.00 S 0.67 S No x No Precipitation 02/12/2018 02:49 PM 02/12/2018 02:50 PM x x x x x Not Reported Not Reported
02/13/2018 07:08 AM 13.10 11.48 4.10 33.44 12.56 66.0 Not Reported 0.00 S 0.00 S 0.00 x No x No Precipitation 02/12/2018 02:49 PM 02/12/2018 02:50 PM x x x x x Not Reported Not Reported
02/13/2018 07:23 AM 13.10 11.48 4.10 33.44 12.56 67.0 Not Reported 0.00 S 0.00 S 0.00 x No x No Precipitation 02/12/2018 02:49 PM 02/12/2018 02:50 PM x x x x x Not Reported Not Reported
02/13/2018 07:38 AM 13.46 11.66 4.46 33.44 12.56 67.0 Not Reported 0.00 S 0.00 S 0.00 x No x No Precipitation 02/12/2018 02:49 PM 02/12/2018 02:50 PM x x x x x Not Reported Not Reported
02/13/2018 07:53 AM 14.36 12.56 5.36 33.44 12.56 66.0 Not Reported 0.00 S 0.00 S 0.00 x No x No Precipitation 02/12/2018 02:49 PM 02/12/2018 02:50 PM x x x x x Not Reported Not Reported
02/13/2018 08:08 AM 15.80 14.18 7.16 33.44 12.56 67.0 Not Reported 0.00 S 0.00 S 0.00 x No x No Precipitation 02/12/2018 02:49 PM 02/12/2018 02:50 PM x x x x x Not Reported Not Reported
02/13/2018 08:23 AM 19.94 17.96 10.94 33.44 12.56 67.0 Not Reported 0.67 S 0.89 SE 1.34 S No x No Precipitation 02/12/2018 02:49 PM 02/12/2018 02:50 PM x x x x x Not Reported Not Reported
02/13/2018 08:38 AM 22.82 20.30 13.28 33.44 12.56 66.0 Not Reported 1.57 E 0.89 S 3.36 NE No x No Precipitation 02/12/2018 02:49 PM 02/12/2018 02:50 PM x x x x x Not Reported Not Reported
02/13/2018 08:53 AM 24.08 21.02 11.30 33.44 12.56 57.0 Not Reported 3.80 SE 4.25 SE 5.37 SE No x No Precipitation 02/12/2018 02:49 PM 02/12/2018 02:50 PM x x x x x Not Reported Not Reported
02/13/2018 09:08 AM 26.42 22.64 10.04 33.44 12.56 49.0 Not Reported 1.34 SE 2.68 SE 6.04 SE No x No Precipitation 02/12/2018 02:49 PM 02/12/2018 02:50 PM x x x x x Not Reported Not Reported
02/13/2018 09:23 AM 28.58 24.44 9.50 33.44 12.56 44.0 Not Reported 1.79 E 2.68 SE 4.25 SE No x No Precipitation 02/12/2018 02:49 PM 02/12/2018 02:50 PM x x x x x Not Reported Not Reported
02/13/2018 09:38 AM 30.20 25.52 9.14 33.44 12.56 40.0 Not Reported 1.12 E 1.34 N 5.37 S No x No Precipitation 02/12/2018 02:49 PM 02/12/2018 02:50 PM x x x x x Not Reported Not Reported
02/13/2018 09:53 AM 30.74 25.88 8.24 33.44 12.56 38.0 Not Reported 2.91 NE 4.70 SE 6.71 SE No x No Precipitation 02/12/2018 02:49 PM 02/12/2018 02:50 PM x x x x x Not Reported Not Reported
02/13/2018 10:08 AM 32.36 27.14 8.60 33.44 12.56 36.0 Not Reported 3.58 NE 6.04 NW 8.95 NE No x No Precipitation 02/12/2018 02:49 PM 02/12/2018 02:50 PM x x x x x Not Reported Not Reported
02/13/2018 10:23 AM 33.26 27.86 8.24 33.44 12.56 34.0 Not Reported 4.47 NE 2.91 E 9.40 N No x No Precipitation 02/12/2018 02:49 PM 02/12/2018 02:50 PM x x x x x Not Reported Not Reported
02/13/2018 10:38 AM 34.16 28.58 8.42 34.52 12.56 33.0 Not Reported 2.46 E 3.36 E 10.07 N No x No Precipitation 02/12/2018 02:49 PM 02/12/2018 02:50 PM x x x x x Not Reported Not Reported
02/13/2018 10:53 AM 34.88 29.12 8.24 34.88 12.56 32.0 Not Reported 3.80 N 3.13 NE 9.17 N No x No Precipitation 02/12/2018 02:49 PM 02/12/2018 02:50 PM x x x x x Not Reported Not Reported
02/13/2018 11:08 AM 35.24 29.30 8.24 35.60 12.56 31.0 Not Reported 1.57 SE 1.34 E 8.05 NE No x No Precipitation 02/12/2018 02:49 PM 02/12/2018 02:50 PM x x x x x Not Reported Not Reported
02/13/2018 11:23 AM 36.32 30.20 8.78 36.32 12.56 31.0 Not Reported 2.46 E 3.36 N 9.40 E No x No Precipitation 02/12/2018 02:49 PM 02/12/2018 02:50 PM x x x x x Not Reported Not Reported
02/13/2018 11:38 AM 36.68 30.56 8.60 36.68 12.56 30.0 Not Reported 4.03 E 4.47 E 8.50 NE No x No Precipitation 02/12/2018 02:49 PM 02/12/2018 02:50 PM x x x x x Not Reported Not Reported
02/13/2018 11:53 AM 38.12 31.82 9.14 38.12 12.56 29.0 Not Reported 1.34 S 3.36 NE 7.38 SE No x No Precipitation 02/12/2018 02:49 PM 02/12/2018 02:50 PM x x x x x Not Reported Not Reported
02/13/2018 12:08 PM 37.40 31.10 8.24 38.48 12.56 29.0 Not Reported 4.25 NE 2.68 N 7.38 S No x No Precipitation 02/12/2018 02:49 PM 02/12/2018 02:50 PM x x x x x Not Reported Not Reported
02/13/2018 12:23 PM 38.48 32.18 8.60 38.66 12.56 28.0 Not Reported 4.70 NE 6.71 E 9.40 N No x No Precipitation 02/12/2018 02:49 PM 02/12/2018 02:50 PM x x x x x Not Reported Not Reported
02/13/2018 12:38 PM 38.30 31.82 7.88 39.02 12.56 27.0 Not Reported 5.82 SE 6.49 S 9.17 E No x No Precipitation 02/12/2018 02:49 PM 02/12/2018 02:50 PM x x x x x Not Reported Not Reported
02/13/2018 12:53 PM 38.84 32.18 8.06 39.20 12.56 27.0 Not Reported 4.70 SE 4.03 SE 8.28 SE No x No Precipitation 02/12/2018 02:49 PM 02/12/2018 02:50 PM x x x x x Not Reported Not Reported
02/13/2018 01:08 PM 39.92 33.08 8.24 39.92 12.56 26.0 Not Reported 3.58 N 4.25 NW 8.95 E No x No Precipitation 02/12/2018 02:49 PM 02/12/2018 02:50 PM x x x x x Not Reported Not Reported
02/13/2018 01:23 PM 40.46 33.62 8.06 40.82 12.56 25.0 Not Reported 1.79 W 2.24 NW 8.50 N No x No Precipitation 02/12/2018 02:49 PM 02/12/2018 02:50 PM x x x x x Not Reported Not Reported
02/13/2018 01:38 PM 41.00 33.98 7.52 41.18 12.56 24.0 Not Reported 4.25 N 1.12 NW 10.51 NE No x No Precipitation 02/12/2018 02:49 PM 02/12/2018 02:50 PM x x x x x Not Reported Not Reported
02/13/2018 01:53 PM 41.18 34.16 6.98 41.54 12.56 23.0 Not Reported 4.03 N 2.01 S 8.95 N No x No Precipitation 02/12/2018 02:49 PM 02/12/2018 02:50 PM x x x x x Not Reported Not Reported
02/13/2018 02:08 PM 40.82 33.80 7.16 41.54 12.56 24.0 Not Reported 1.79 SE 4.92 N 7.38 NE No x No Precipitation 02/12/2018 02:49 PM 02/12/2018 02:50 PM x x x x x Not Reported Not Reported
02/13/2018 02:23 PM 41.54 34.34 6.98 41.54 12.56 23.0 Not Reported 5.82 N 4.25 NW 9.40 NE No x No Precipitation 02/12/2018 02:49 PM 02/12/2018 02:50 PM x x x x x Not Reported Not Reported
02/13/2018 02:38 PM 41.36 34.16 6.80 41.72 12.56 23.0 Not Reported 1.57 NE 2.24 S 8.05 E No x No Precipitation 02/12/2018 02:49 PM 02/12/2018 02:50 PM x x x x x Not Reported Not Reported
02/13/2018 02:53 PM 41.36 34.16 6.80 41.90 12.56 23.0 Not Reported 3.36 NE 2.24 N 7.61 N No x No Precipitation 02/12/2018 02:49 PM 02/12/2018 02:50 PM x x x x x Not Reported Not Reported
02/13/2018 03:08 PM 40.82 33.80 6.08 41.90 12.56 23.0 Not Reported 3.36 E 2.91 N 7.61 E No x No Precipitation 02/12/2018 02:49 PM 02/12/2018 02:50 PM x x x x x Not Reported Not Reported
02/13/2018 03:23 PM 41.54 34.34 6.26 41.90 12.56 22.0 Not Reported 1.12 S 0.00 SE 7.16 E No x No Precipitation 02/12/2018 02:49 PM 02/12/2018 02:50 PM x x x x x Not Reported Not Reported
02/13/2018 03:38 PM 41.36 33.98 6.08 42.08 12.56 22.0 Not Reported 2.91 S 4.47 SE 8.05 SE No x No Precipitation 02/12/2018 02:49 PM 02/12/2018 02:50 PM x x x x x Not Reported Not Reported
02/13/2018 03:53 PM 40.46 33.62 6.08 42.08 12.56 23.0 Not Reported 1.79 E 2.01 S 8.72 N No x No Precipitation 02/12/2018 02:49 PM 02/12/2018 02:50 PM x x x x x Not Reported Not Reported
02/13/2018 04:09 PM 39.74 32.90 5.90 42.08 12.56 23.0 Not Reported 1.12 SE 1.57 E 8.28 NE No x No Precipitation 02/12/2018 02:49 PM 02/12/2018 02:50 PM x x x x x Not Reported Not Reported
02/13/2018 04:23 PM 38.84 32.18 5.54 42.08 12.56 24.0 Not Reported 1.57 NE 0.22 NW 8.05 N No x No Precipitation 02/12/2018 02:49 PM 02/12/2018 02:50 PM x x x x x Not Reported Not Reported
02/13/2018 04:38 PM 36.68 30.38 5.18 42.08 12.56 26.0 Not Reported 2.01 N 4.70 NE 6.93 E No x No Precipitation 02/12/2018 02:49 PM 02/12/2018 02:50 PM x x x x x Not Reported Not Reported
02/13/2018 04:53 PM 34.88 29.12 5.36 42.08 12.56 28.0 Not Reported 1.57 NW 0.00 W 6.93 N No x No Precipitation 02/12/2018 02:49 PM 02/12/2018 02:50 PM x x x x x Not Reported Not Reported
02/13/2018 05:08 PM 33.26 27.86 5.36 42.08 12.56 30.0 Not Reported 0.67 N 2.01 NW 3.58 N No x No Precipitation 02/12/2018 02:49 PM 02/12/2018 02:50 PM x x x x x Not Reported Not Reported
02/13/2018 05:23 PM 31.10 26.06 5.36 42.08 12.56 32.0 Not Reported 1.34 N 1.34 N 2.46 N No x No Precipitation 02/12/2018 02:49 PM 02/12/2018 02:50 PM x x x x x Not Reported Not Reported
02/13/2018 05:38 PM 29.12 24.62 5.00 42.08 12.56 35.0 Not Reported 0.45 N 1.12 N 1.79 N No x No Precipitation 02/12/2018 02:49 PM 02/12/2018 02:50 PM x x x x x Not Reported Not Reported
02/13/2018 05:53 PM 27.86 23.54 5.72 42.08 12.56 38.0 Not Reported 0.00 N 0.00 N 0.67 N No x No Precipitation 02/12/2018 02:49 PM 02/12/2018 02:50 PM x x x x x Not Reported Not Reported
02/13/2018 06:08 PM 26.78 22.46 6.08 42.08 12.56 40.0 Not Reported 0.00 NW 0.00 S 1.34 NW No x No Precipitation 02/12/2018 02:49 PM 02/12/2018 02:50 PM x x x x x Not Reported Not Reported
02/13/2018 06:23 PM 26.06 22.10 6.62 42.08 12.56 43.0 Not Reported 0.00 S 0.00 S 0.00 x No x No Precipitation 02/12/2018 02:49 PM 02/12/2018 02:50 PM x x x x x Not Reported Not Reported
02/13/2018 06:38 PM 25.34 21.56 6.98 42.08 12.56 45.0 Not Reported 0.00 NW 0.00 W 0.67 NW No x No Precipitation 02/12/2018 02:49 PM 02/12/2018 02:50 PM x x x x x Not Reported Not Reported
02/13/2018 06:53 PM 24.98 21.20 7.52 42.08 12.56 47.0 Not Reported 0.00 W 0.00 W 0.00 x No x No Precipitation 02/12/2018 02:49 PM 02/12/2018 02:50 PM x x x x x Not Reported Not Reported
02/13/2018 07:08 PM 24.26 20.84 7.88 42.08 12.56 48.0 Not Reported 0.22 W 0.00 W 0.67 W No x No Precipitation 02/12/2018 02:49 PM 02/12/2018 02:50 PM x x x x x Not Reported Not Reported
02/13/2018 07:23 PM 23.90 20.48 8.24 42.08 12.56 50.0 Not Reported 0.45 NW 1.34 NW 1.34 NW No x No Precipitation 02/12/2018 02:49 PM 02/12/2018 02:50 PM x x x x x Not Reported Not Reported
02/13/2018 07:38 PM 23.90 20.48 8.96 42.08 12.56 52.0 Not Reported 0.45 N 1.79 S 1.57 S No x No Precipitation 02/12/2018 02:49 PM 02/12/2018 02:50 PM x x x x x Not Reported Not Reported
02/13/2018 07:53 PM 23.54 20.30 8.96 42.08 12.56 53.0 Not Reported 0.00 S 0.00 S 1.34 S No x No Precipitation 02/12/2018 02:49 PM 02/12/2018 02:50 PM x x x x x Not Reported Not Reported
02/13/2018 08:08 PM 23.00 19.94 9.14 42.08 12.56 54.0 Not Reported 0.00 NW 0.00 NW 1.57 NW No x No Precipitation 02/12/2018 02:49 PM 02/12/2018 02:50 PM x x x x x Not Reported Not Reported
02/13/2018 08:23 PM 22.82 19.76 9.50 42.08 12.56 56.0 Not Reported 0.00 W 0.00 W 1.12 SW No x No Precipitation 02/12/2018 02:49 PM 02/12/2018 02:50 PM x x x x x Not Reported Not Reported
02/13/2018 08:38 PM 22.46 19.58 9.50 42.08 12.56 57.0 Not Reported 0.00 NW 0.00 NW 1.57 NW No x No Precipitation 02/12/2018 02:49 PM 02/12/2018 02:50 PM x x x x x Not Reported Not Reported
02/13/2018 08:53 PM 22.10 19.40 9.68 42.08 12.56 58.0 Not Reported 0.00 NW 0.00 NW 0.00 x No x No Precipitation 02/12/2018 02:49 PM 02/12/2018 02:50 PM x x x x x Not Reported Not Reported
02/13/2018 09:08 PM 21.74 19.04 9.68 42.08 12.56 59.0 Not Reported 0.00 NW 0.00 NW 0.00 x No x No Precipitation 02/12/2018 02:49 PM 02/12/2018 02:50 PM x x x x x Not Reported Not Reported
02/13/2018 09:23 PM 21.56 18.86 9.86 42.08 12.56 60.0 Not Reported 1.12 NW 0.22 NW 1.79 NW No x No Precipitation 02/12/2018 02:49 PM 02/12/2018 02:50 PM x x x x x Not Reported Not Reported
02/13/2018 09:38 PM 21.38 18.86 10.04 42.08 12.56 61.0 Not Reported 0.00 SW 0.00 SW 1.57 NW No x No Precipitation 02/12/2018 02:49 PM 02/12/2018 02:50 PM x x x x x Not Reported Not Reported
02/13/2018 09:53 PM 21.02 18.50 10.04 42.08 12.56 62.0 Not Reported 0.00 SW 0.00 SW 0.00 x No x No Precipitation 02/12/2018 02:49 PM 02/12/2018 02:50 PM x x x x x Not Reported Not Reported
02/13/2018 10:08 PM 21.02 18.50 10.22 42.08 12.56 62.0 Not Reported 1.12 SW 0.00 S 3.13 S No x No Precipitation 02/12/2018 02:49 PM 02/12/2018 02:50 PM x x x x x Not Reported Not Reported
02/13/2018 10:24 PM 21.02 18.68 10.58 42.08 12.56 63.0 Not Reported 0.45 S 0.00 S 2.46 NW No x No Precipitation 02/12/2018 02:49 PM 02/12/2018 02:50 PM x x x x x Not Reported Not Reported
02/13/2018 10:38 PM 20.66 18.32 10.40 42.08 12.56 64.0 Not Reported 0.00 SE 0.22 N 2.68 S No x No Precipitation 02/12/2018 02:49 PM 02/12/2018 02:50 PM x x x x x Not Reported Not Reported
02/13/2018 10:53 PM 20.48 18.14 10.40 42.08 12.56 64.0 Not Reported 0.00 NW 0.00 NW 1.12 NW No x No Precipitation 02/12/2018 02:49 PM 02/12/2018 02:50 PM x x x x x Not Reported Not Reported
02/13/2018 11:08 PM 20.12 17.96 10.40 42.08 12.56 65.0 Not Reported 0.00 S 0.00 S 0.00 x No x No Precipitation 02/12/2018 02:49 PM 02/12/2018 02:50 PM x x x x x Not Reported Not Reported
02/13/2018 11:23 PM 20.12 17.96 10.58 42.08 12.56 65.0 Not Reported 0.67 NW 1.57 NW 1.79 NW No x No Precipitation 02/12/2018 02:49 PM 02/12/2018 02:50 PM x x x x x Not Reported Not Reported
02/13/2018 11:38 PM 19.76 17.60 10.40 42.08 12.56 66.0 Not Reported 0.00 NW 0.00 NW 0.00 x No x No Precipitation 02/12/2018 02:49 PM 02/12/2018 02:50 PM x x x x x Not Reported Not Reported
02/13/2018 11:54 PM 19.58 17.60 10.40 42.08 12.56 66.0 Not Reported 0.00 NW 0.00 NW 1.79 NW No x No Precipitation 02/12/2018 02:49 PM 02/12/2018 02:50 PM x x x x x Not Reported Not Reported